Time;durP1;ratioP1;P1;durP2;ratioP2;P2;SDS_P1;SDS_P2;PMS_P1;PMS_P2;Temp;Humidity;BMP_temperature;BMP_pressure;BME280_temperature;BME280_humidity;BME280_pressure;Samples;Min_cycle;Max_cycle;Signal;HPM_P1;HPM_P2
2023/08/30 05:17:17;;;;;;;;;;;;;;;;;;4970994;28;19934;-42
2023/08/30 05:19:43;;;;;;;;;;;;;;;;;;4975018;28;19997;-41
2023/08/30 05:22:09;;;;;;;;;;;;;;;;;;4972872;28;20057;-42
2023/08/30 05:24:35;;;;;;;;;;;;;;;;;;4974992;28;19919;-42
2023/08/30 05:27:01;;;;;;;;;;;;;;;;;;4974880;28;19910;-43
2023/08/30 05:29:27;;;;;;;;;;;;;;;;;;4974915;28;19918;-42
2023/08/30 05:31:53;;;;;;;;;;;;;;;;;;4974177;28;19915;-41
2023/08/30 05:34:18;;;;;;;;;;;;;;;;;;4974873;28;19911;-41
2023/08/30 05:36:44;;;;;;;;;;;;;;;;;;4974816;28;19911;-42
2023/08/30 05:39:10;;;;;;;;;;;;;;;;;;4975247;28;20353;-42
2023/08/30 05:41:36;;;;;;;;;;;;;;;;;;4973998;28;20013;-41
2023/08/30 05:44:02;;;;;;;;;;;;;;;;;;4973499;28;19933;-41
2023/08/30 05:46:28;;;;;;;;;;;;;;;;;;4972996;28;19953;-43
2023/08/30 05:48:54;;;;;;;;;;;;;;;;;;4972121;28;19945;-42
2023/08/30 05:51:20;;;;;;;;;;;;;;;;;;4955692;28;20000;-41
2023/08/30 05:53:46;;;;;;;;;;;;;;;;;;4974238;28;20326;-42
2023/08/30 05:56:12;;;;;;;;;;;;;;;;;;4974094;28;19914;-43
2023/08/30 05:58:38;;;;;;;;;;;;;;;;;;4972941;28;20008;-42
2023/08/30 06:01:06;;;;;;;;;;;;;;;;;;4956562;28;20401;-42
2023/08/30 06:03:31;;;;;;;;;;;;;;;;;;4974049;28;19938;-43
2023/08/30 06:05:57;;;;;;;;;;;;;;;;;;4974115;28;19910;-42
2023/08/30 06:08:23;;;;;;;;;;;;;;;;;;4971892;28;20439;-43
2023/08/30 06:10:49;;;;;;;;;;;;;;;;;;4974227;28;19910;-41
2023/08/30 06:13:15;;;;;;;;;;;;;;;;;;4961304;28;19914;-42
2023/08/30 06:15:41;;;;;;;;;;;;;;;;;;4973147;28;20385;-42
2023/08/30 06:18:07;;;;;;;;;;;;;;;;;;4963966;28;20034;-43
2023/08/30 06:20:33;;;;;;;;;;;;;;;;;;4954602;29;19914;-43
2023/08/30 06:22:59;;;;;;;;;;;;;;;;;;4954686;29;19915;-42
2023/08/30 06:25:25;;;;;;;;;;;;;;;;;;4954396;29;19910;-44
2023/08/30 06:27:50;;;;;;;;;;;;;;;;;;4954449;29;19911;-43
2023/08/30 06:30:16;;;;;;;;;;;;;;;;;;4963932;28;19915;-42
2023/08/30 06:32:42;;;;;;;;;;;;;;;;;;4973790;28;20416;-41
2023/08/30 06:35:08;;;;;;;;;;;;;;;;;;4966922;28;19915;-42
2023/08/30 06:37:34;;;;;;;;;;;;;;;;;;4972718;28;19949;-43
2023/08/30 06:40:00;;;;;;;;;;;;;;;;;;4972783;28;19919;-42
2023/08/30 06:42:26;;;;;;;;;;;;;;;;;;4973562;28;19953;-42
2023/08/30 06:44:52;;;;;;;;;;;;;;;;;;4973011;28;19925;-42
2023/08/30 06:47:17;;;;;;;;;;;;;;;;;;4973366;28;19932;-41
2023/08/30 06:49:43;;;;;;;;;;;;;;;;;;4973627;28;19910;-42
2023/08/30 06:52:09;;;;;;;;;;;;;;;;;;4973678;28;19910;-42
2023/08/30 06:54:36;;;;;;;;;;;;;;;;;;4973600;28;19954;-41
2023/08/30 06:57:02;;;;;;;;;;;;;;;;;;4972301;28;19961;-42
2023/08/30 06:59:28;;;;;;;;;;;;;;;;;;4972753;28;20288;-43
2023/08/30 07:01:54;;;;;;;;;;;;;;;;;;4970886;28;19918;-44
2023/08/30 07:04:20;;;;;;;;;;;;;;;;;;4970001;28;19985;-43
2023/08/30 07:06:46;;;;;;;;;;;;;;;;;;4962030;28;20385;-43
2023/08/30 07:09:11;;;;;;;;;;;;;;;;;;4974435;28;20380;-42
2023/08/30 07:11:37;;;;;;;;;;;;;;;;;;4955821;28;20008;-42
2023/08/30 07:14:03;;;;;;;;;;;;;;;;;;4971532;28;19924;-45
2023/08/30 07:16:31;;;;;;;;;;;;;;;;;;4971235;28;19965;-43
2023/08/30 07:18:57;;;;;;;;;;;;;;;;;;4967445;28;19929;-43
2023/08/30 07:21:23;;;;;;;;;;;;;;;;;;4961612;28;19914;-42
2023/08/30 07:23:49;;;;;;;;;;;;;;;;;;4971285;28;19921;-42
2023/08/30 07:26:15;;;;;;;;;;;;;;;;;;4970336;28;19911;-42
2023/08/30 07:28:41;;;;;;;;;;;;;;;;;;4971158;28;19992;-43
2023/08/30 07:31:07;;;;;;;;;;;;;;;;;;4970576;28;20008;-43
2023/08/30 07:33:33;;;;;;;;;;;;;;;;;;4970233;28;19914;-43
2023/08/30 07:35:59;;;;;;;;;;;;;;;;;;4989699;28;19910;-43
2023/08/30 07:38:25;;;;;;;;;;;;;;;;;;4982790;28;19914;-45
2023/08/30 07:40:50;;;;;;;;;;;;;;;;;;4970246;28;19980;-43
2023/08/30 07:43:16;;;;;;;;;;;;;;;;;;4970057;28;19922;-41
2023/08/30 07:45:42;;;;;;;;;;;;;;;;;;4969020;28;19918;-42
2023/08/30 07:48:08;;;;;;;;;;;;;;;;;;4970105;28;19914;-43
2023/08/30 07:50:34;;;;;;;;;;;;;;;;;;4970249;28;19980;-42
2023/08/30 07:53:00;;;;;;;;;;;;;;;;;;4970082;28;19914;-42
2023/08/30 07:55:26;;;;;;;;;;;;;;;;;;4972088;28;20365;-44
2023/08/30 07:57:51;;;;;;;;;;;;;;;;;;4979548;28;19918;-42
2023/08/30 08:00:17;;;;;;;;;;;;;;;;;;4969952;28;19996;-42
2023/08/30 08:02:43;;;;;;;;;;;;;;;;;;4969875;28;19917;-42
2023/08/30 08:05:09;;;;;;;;;;;;;;;;;;4969642;28;19949;-43
2023/08/30 08:07:35;;;;;;;;;;;;;;;;;;4969846;28;20294;-43
2023/08/30 08:10:01;;;;;;;;;;;;;;;;;;4969984;28;19916;-41
2023/08/30 08:12:27;;;;;;;;;;;;;;;;;;4968996;28;19932;-42
2023/08/30 08:14:53;;;;;;;;;;;;;;;;;;4968834;28;19917;-43
2023/08/30 08:17:19;;;;;;;;;;;;;;;;;;4968142;28;19914;-43
2023/08/30 08:19:45;;;;;;;;;;;;;;;;;;4968542;28;19918;-44
2023/08/30 08:22:11;;;;;;;;;;;;;;;;;;4952443;28;19956;-42
2023/08/30 08:24:37;;;;;;;;;;;;;;;;;;4954336;28;19958;-43
2023/08/30 08:27:03;;;;;;;;;;;;;;;;;;4969594;28;19910;-43
2023/08/30 08:29:28;;;;;;;;;;;;;;;;;;4968842;28;20013;-42
2023/08/30 08:31:54;;;;;;;;;;;;;;;;;;4970069;28;20001;-42
2023/08/30 08:34:20;;;;;;;;;;;;;;;;;;4969325;28;19906;-42
2023/08/30 08:36:46;;;;;;;;;;;;;;;;;;4969667;28;19918;-42
2023/08/30 08:39:14;;;;;;;;;;;;;;;;;;4968872;28;19914;-41
2023/08/30 08:41:40;;;;;;;;;;;;;;;;;;4969511;28;20266;-42
2023/08/30 08:44:07;;;;;;;;;;;;;;;;;;4969422;28;20300;-43
2023/08/30 08:46:33;;;;;;;;;;;;;;;;;;4968857;28;19910;-42
2023/08/30 08:48:59;;;;;;;;;;;;;;;;;;4969980;28;19911;-43
2023/08/30 08:51:25;;;;;;;;;;;;;;;;;;4967807;28;19910;-46
2023/08/30 08:53:50;;;;;;;;;;;;;;;;;;4968577;28;20424;-44
2023/08/30 08:56:16;;;;;;;;;;;;;;;;;;4983499;28;20440;-44
2023/08/30 08:58:43;;;;;;;;;;;;;;;;;;4968149;28;19910;-47
2023/08/30 09:01:09;;;;;;;;;;;;;;;;;;4968044;28;19914;-43
2023/08/30 09:03:35;;;;;;;;;;;;;;;;;;4967227;28;20062;-44
2023/08/30 09:06:01;;;;;;;;;;;;;;;;;;4967381;28;19938;-43
2023/08/30 09:08:27;;;;;;;;;;;;;;;;;;4967818;28;19910;-44
2023/08/30 09:10:52;;;;;;;;;;;;;;;;;;4967294;28;19910;-44
2023/08/30 09:13:20;;;;;;;;;;;;;;;;;;4963252;28;20389;-44
2023/08/30 09:15:46;;;;;;;;;;;;;;;;;;4959575;28;19977;-45
2023/08/30 09:18:12;;;;;;;;;;;;;;;;;;4967520;28;19937;-47
2023/08/30 09:20:38;;;;;;;;;;;;;;;;;;4968991;28;19917;-45
2023/08/30 09:23:04;;;;;;;;;;;;;;;;;;4968941;28;19936;-46
2023/08/30 09:25:30;;;;;;;;;;;;;;;;;;4968687;28;19961;-48
2023/08/30 09:27:56;;;;;;;;;;;;;;;;;;4967859;28;20388;-44
2023/08/30 09:30:21;;;;;;;;;;;;;;;;;;4968095;28;19921;-44
2023/08/30 09:32:47;;;;;;;;;;;;;;;;;;4968095;28;19910;-44
2023/08/30 09:35:13;;;;;;;;;;;;;;;;;;4968192;28;19910;-44
2023/08/30 09:37:39;;;;;;;;;;;;;;;;;;4968745;28;19957;-44
2023/08/30 09:40:05;;;;;;;;;;;;;;;;;;4966820;28;19914;-43
2023/08/30 09:42:31;;;;;;;;;;;;;;;;;;4965035;28;19914;-43
2023/08/30 09:44:57;;;;;;;;;;;;;;;;;;4968307;28;19910;-43
2023/08/30 09:47:23;;;;;;;;;;;;;;;;;;4968572;28;19914;-43
2023/08/30 09:49:49;;;;;;;;;;;;;;;;;;4968197;28;19910;-43
2023/08/30 09:52:15;;;;;;;;;;;;;;;;;;4971481;28;19917;-44
2023/08/30 09:54:41;;;;;;;;;;;;;;;;;;4971492;28;19911;-46
2023/08/30 09:57:07;;;;;;;;;;;;;;;;;;4971727;28;20082;-44
2023/08/30 09:59:33;;;;;;;;;;;;;;;;;;4971556;28;20050;-42
2023/08/30 10:02:00;;;;;;;;;;;;;;;;;;4971457;28;19910;-43
2023/08/30 10:04:26;;;;;;;;;;;;;;;;;;4971352;28;19914;-45
2023/08/30 10:06:53;;;;;;;;;;;;;;;;;;4971345;28;20398;-43
2023/08/30 10:09:19;;;;;;;;;;;;;;;;;;4971472;28;19910;-43
2023/08/30 10:11:45;;;;;;;;;;;;;;;;;;4971504;28;20381;-43
2023/08/30 10:14:10;;;;;;;;;;;;;;;;;;4971801;28;19910;-46
2023/08/30 10:16:36;;;;;;;;;;;;;;;;;;4970751;28;20337;-44
2023/08/30 10:19:04;;;;;;;;;;;;;;;;;;4968538;28;19950;-43
2023/08/30 10:21:29;;;;;;;;;;;;;;;;;;4952709;28;19910;-43
2023/08/30 10:23:56;;;;;;;;;;;;;;;;;;4962641;28;19918;-45
2023/08/30 10:26:21;;;;;;;;;;;;;;;;;;4972466;28;19918;-45
2023/08/30 10:28:47;;;;;;;;;;;;;;;;;;4969799;28;19915;-43
2023/08/30 10:31:13;;;;;;;;;;;;;;;;;;4970941;28;20301;-48
2023/08/30 10:33:39;;;;;;;;;;;;;;;;;;4971212;28;19918;-44
2023/08/30 10:36:05;;;;;;;;;;;;;;;;;;4966850;28;19914;-45
2023/08/30 10:38:31;;;;;;;;;;;;;;;;;;4955499;28;20435;-46
2023/08/30 10:40:57;;;;;;;;;;;;;;;;;;4957825;28;19961;-44
2023/08/30 10:43:23;;;;;;;;;;;;;;;;;;4990300;28;19913;-44
2023/08/30 10:45:49;;;;;;;;;;;;;;;;;;4973745;28;19910;-43
2023/08/30 10:48:15;;;;;;;;;;;;;;;;;;4970286;28;19925;-45
2023/08/30 10:50:40;;;;;;;;;;;;;;;;;;4972241;28;19910;-43
2023/08/30 10:53:06;;;;;;;;;;;;;;;;;;4967862;28;19910;-43
2023/08/30 10:55:32;;;;;;;;;;;;;;;;;;4951882;29;20440;-44
2023/08/30 10:57:58;;;;;;;;;;;;;;;;;;4951772;29;19910;-43
2023/08/30 11:00:24;;;;;;;;;;;;;;;;;;4959663;28;20289;-44
2023/08/30 11:02:50;;;;;;;;;;;;;;;;;;4990102;28;20451;-44
2023/08/30 11:05:19;;;;;;;;;;;;;;;;;;4990702;28;20008;-45
2023/08/30 11:07:45;;;;;;;;;;;;;;;;;;4989729;28;19917;-44
2023/08/30 11:10:11;;;;;;;;;;;;;;;;;;4968305;28;19914;-44
2023/08/30 11:12:37;;;;;;;;;;;;;;;;;;4968147;28;19950;-47
2023/08/30 11:15:03;;;;;;;;;;;;;;;;;;4962905;28;19910;-44
2023/08/30 11:17:29;;;;;;;;;;;;;;;;;;4970569;28;19914;-44
2023/08/30 11:19:54;;;;;;;;;;;;;;;;;;4965563;28;20369;-44
2023/08/30 11:22:21;;;;;;;;;;;;;;;;;;4934135;29;19953;-45
2023/08/30 11:24:46;;;;;;;;;;;;;;;;;;4951395;28;19919;-44
2023/08/30 11:27:15;;;;;;;;;;;;;;;;;;4969892;28;19920;-44
2023/08/30 11:29:41;;;;;;;;;;;;;;;;;;4973527;28;20291;-47
2023/08/30 11:32:07;;;;;;;;;;;;;;;;;;4967247;28;19957;-46
2023/08/30 11:34:33;;;;;;;;;;;;;;;;;;4969174;28;19946;-45
2023/08/30 11:36:59;;;;;;;;;;;;;;;;;;4970210;28;19921;-44
2023/08/30 11:39:25;;;;;;;;;;;;;;;;;;4970220;28;19946;-43
2023/08/30 11:41:51;;;;;;;;;;;;;;;;;;4970743;28;20508;-45
2023/08/30 11:44:17;;;;;;;;;;;;;;;;;;4970063;28;19918;-45
2023/08/30 11:46:43;;;;;;;;;;;;;;;;;;4970053;28;19914;-44
2023/08/30 11:49:09;;;;;;;;;;;;;;;;;;4968567;28;19910;-48
2023/08/30 11:51:35;;;;;;;;;;;;;;;;;;4968717;28;19950;-45
2023/08/30 11:54:03;;;;;;;;;;;;;;;;;;4968346;28;19933;-47
2023/08/30 11:56:28;;;;;;;;;;;;;;;;;;4968089;28;19910;-45
2023/08/30 11:58:54;;;;;;;;;;;;;;;;;;4967963;28;19921;-47
2023/08/30 12:01:20;;;;;;;;;;;;;;;;;;4965911;28;19929;-46
2023/08/30 12:03:50;;;;;;;;;;;;;;;;;;4965020;28;19954;-45
2023/08/30 12:06:16;;;;;;;;;;;;;;;;;;4968469;28;20031;-43
2023/08/30 12:08:42;;;;;;;;;;;;;;;;;;4955961;28;20365;-43
2023/08/30 12:11:08;;;;;;;;;;;;;;;;;;4955223;28;19968;-43
2023/08/30 12:13:34;;;;;;;;;;;;;;;;;;4946237;28;19921;-44
2023/08/30 12:16:00;;;;;;;;;;;;;;;;;;4955119;28;19945;-45
2023/08/30 12:18:27;;;;;;;;;;;;;;;;;;4959150;28;19918;-44
2023/08/30 12:20:53;;;;;;;;;;;;;;;;;;4978416;28;19910;-44
2023/08/30 12:23:19;;;;;;;;;;;;;;;;;;4972240;28;19915;-47
2023/08/30 12:25:45;;;;;;;;;;;;;;;;;;4966966;28;19925;-49
2023/08/30 12:28:11;;;;;;;;;;;;;;;;;;4967714;28;19997;-45
2023/08/30 12:30:37;;;;;;;;;;;;;;;;;;4970433;28;19926;-45
2023/08/30 12:33:03;;;;;;;;;;;;;;;;;;4970259;28;19910;-45
2023/08/30 12:35:29;;;;;;;;;;;;;;;;;;4969775;28;19946;-48
2023/08/30 12:37:55;;;;;;;;;;;;;;;;;;4970031;28;20415;-44
2023/08/30 12:40:21;;;;;;;;;;;;;;;;;;4969192;28;19914;-49
2023/08/30 12:42:47;;;;;;;;;;;;;;;;;;4970148;28;20400;-47
2023/08/30 12:45:13;;;;;;;;;;;;;;;;;;4969129;28;19932;-45
2023/08/30 12:47:39;;;;;;;;;;;;;;;;;;4970241;28;19914;-48
2023/08/30 12:50:05;;;;;;;;;;;;;;;;;;4969156;28;19914;-48
2023/08/30 12:52:31;;;;;;;;;;;;;;;;;;4958364;28;20286;-46
2023/08/30 12:54:57;;;;;;;;;;;;;;;;;;4976991;28;19914;-46
2023/08/30 12:57:22;;;;;;;;;;;;;;;;;;4976173;28;20005;-47
2023/08/30 12:59:48;;;;;;;;;;;;;;;;;;4960559;28;19914;-46
2023/08/30 13:02:14;;;;;;;;;;;;;;;;;;4969944;28;20373;-46
2023/08/30 13:04:40;;;;;;;;;;;;;;;;;;4969341;28;19924;-45
2023/08/30 13:07:06;;;;;;;;;;;;;;;;;;4969842;28;20284;-46
2023/08/30 13:09:32;;;;;;;;;;;;;;;;;;4967452;28;19914;-45
2023/08/30 13:11:58;;;;;;;;;;;;;;;;;;4968163;28;19973;-47
2023/08/30 13:14:24;;;;;;;;;;;;;;;;;;4968216;28;19914;-45
2023/08/30 13:16:50;;;;;;;;;;;;;;;;;;4956213;28;19914;-47
2023/08/30 13:19:16;;;;;;;;;;;;;;;;;;4962351;28;19922;-45
2023/08/30 13:21:42;;;;;;;;;;;;;;;;;;4969248;28;19914;-48
2023/08/30 13:24:08;;;;;;;;;;;;;;;;;;4971119;28;19915;-47
2023/08/30 13:26:34;;;;;;;;;;;;;;;;;;4974074;28;19965;-45
2023/08/30 13:29:02;;;;;;;;;;;;;;;;;;4973871;28;19910;-46
2023/08/30 13:31:28;;;;;;;;;;;;;;;;;;4973953;28;19910;-48
2023/08/30 13:33:54;;;;;;;;;;;;;;;;;;4986457;28;19909;-44
2023/08/30 13:36:20;;;;;;;;;;;;;;;;;;4993277;28;19933;-45
2023/08/30 13:38:46;;;;;;;;;;;;;;;;;;4982789;28;19921;-44
2023/08/30 13:41:12;;;;;;;;;;;;;;;;;;4972139;28;20395;-47
2023/08/30 13:43:38;;;;;;;;;;;;;;;;;;4973624;28;19921;-46
2023/08/30 13:46:04;;;;;;;;;;;;;;;;;;4973452;28;20297;-44
2023/08/30 13:48:30;;;;;;;;;;;;;;;;;;4973905;28;19911;-46
2023/08/30 13:50:56;;;;;;;;;;;;;;;;;;4974576;28;19917;-45
2023/08/30 13:53:22;;;;;;;;;;;;;;;;;;4973692;28;19918;-45
2023/08/30 13:55:51;;;;;;;;;;;;;;;;;;4974371;28;19910;-45
2023/08/30 13:58:17;;;;;;;;;;;;;;;;;;4992685;28;19910;-45
2023/08/30 14:00:42;;;;;;;;;;;;;;;;;;4993037;28;19917;-45
2023/08/30 14:03:09;;;;;;;;;;;;;;;;;;4992818;28;20056;-45
2023/08/30 14:05:35;;;;;;;;;;;;;;;;;;4993052;28;19988;-45
2023/08/30 14:08:01;;;;;;;;;;;;;;;;;;4975603;28;20396;-44
2023/08/30 14:10:28;;;;;;;;;;;;;;;;;;4972485;28;19922;-44
2023/08/30 14:12:54;;;;;;;;;;;;;;;;;;4971985;28;20431;-46
2023/08/30 14:15:20;;;;;;;;;;;;;;;;;;4971674;28;19922;-46
2023/08/30 14:17:46;;;;;;;;;;;;;;;;;;4963311;28;19941;-44
2023/08/30 14:20:12;;;;;;;;;;;;;;;;;;4967744;28;19922;-45
2023/08/30 14:22:38;;;;;;;;;;;;;;;;;;4973111;28;20395;-46
2023/08/30 14:25:04;;;;;;;;;;;;;;;;;;4972414;28;19981;-45
2023/08/30 14:27:32;;;;;;;;;;;;;;;;;;4965097;28;20416;-48
2023/08/30 14:30:00;;;;;;;;;;;;;;;;;;4969694;28;20441;-45
2023/08/30 14:32:26;;;;;;;;;;;;;;;;;;4965937;28;20392;-48
2023/08/30 14:34:51;;;;;;;;;;;;;;;;;;4955527;28;20020;-49
2023/08/30 14:37:17;;;;;;;;;;;;;;;;;;4968822;28;19918;-48
2023/08/30 14:39:43;;;;;;;;;;;;;;;;;;4971647;28;19922;-49
2023/08/30 14:42:09;;;;;;;;;;;;;;;;;;4969800;28;20419;-46
2023/08/30 14:44:35;;;;;;;;;;;;;;;;;;4971943;28;19969;-49
2023/08/30 14:47:01;;;;;;;;;;;;;;;;;;4971668;28;19910;-44
2023/08/30 14:49:27;;;;;;;;;;;;;;;;;;4971185;28;19957;-47
2023/08/30 14:51:52;;;;;;;;;;;;;;;;;;4972134;28;19910;-46
2023/08/30 14:54:18;;;;;;;;;;;;;;;;;;4971892;28;20369;-45
2023/08/30 14:56:44;;;;;;;;;;;;;;;;;;4967261;28;19957;-46
2023/08/30 14:59:10;;;;;;;;;;;;;;;;;;4971407;28;19914;-44
2023/08/30 15:01:36;;;;;;;;;;;;;;;;;;4970787;28;19964;-46
2023/08/30 15:04:02;;;;;;;;;;;;;;;;;;4971230;28;19925;-44
2023/08/30 15:06:28;;;;;;;;;;;;;;;;;;4971142;28;19915;-47
2023/08/30 15:08:54;;;;;;;;;;;;;;;;;;4971649;28;19910;-44
2023/08/30 15:11:20;;;;;;;;;;;;;;;;;;4970265;28;19914;-47
2023/08/30 15:13:46;;;;;;;;;;;;;;;;;;4969351;28;19921;-47
2023/08/30 15:16:11;;;;;;;;;;;;;;;;;;4969401;28;19925;-44
2023/08/30 15:18:37;;;;;;;;;;;;;;;;;;4966769;28;19961;-47
2023/08/30 15:21:03;;;;;;;;;;;;;;;;;;4977707;28;19997;-46
2023/08/30 15:23:29;;;;;;;;;;;;;;;;;;4964297;28;20420;-46
2023/08/30 15:25:55;;;;;;;;;;;;;;;;;;4962018;28;19922;-44
2023/08/30 15:28:21;;;;;;;;;;;;;;;;;;4961967;28;19910;-46
2023/08/30 15:30:48;;;;;;;;;;;;;;;;;;4977464;28;19913;-45
2023/08/30 15:33:14;;;;;;;;;;;;;;;;;;4980777;28;20476;-45
2023/08/30 15:35:40;;;;;;;;;;;;;;;;;;4974436;28;20016;-48
2023/08/30 15:38:06;;;;;;;;;;;;;;;;;;4961611;28;19915;-46
2023/08/30 15:40:33;;;;;;;;;;;;;;;;;;4958573;28;20309;-45
2023/08/30 15:42:59;;;;;;;;;;;;;;;;;;4966604;28;20341;-46
2023/08/30 15:45:24;;;;;;;;;;;;;;;;;;4979570;28;19914;-46
2023/08/30 15:47:51;;;;;;;;;;;;;;;;;;4974951;28;19914;-46
2023/08/30 15:50:17;;;;;;;;;;;;;;;;;;4965438;28;20419;-46
2023/08/30 15:52:43;;;;;;;;;;;;;;;;;;4965266;28;19915;-44
2023/08/30 15:55:08;;;;;;;;;;;;;;;;;;4966661;28;20129;-45
2023/08/30 15:57:34;;;;;;;;;;;;;;;;;;4976249;28;19921;-48
2023/08/30 16:00:00;;;;;;;;;;;;;;;;;;4976312;28;19933;-50
2023/08/30 16:02:26;;;;;;;;;;;;;;;;;;4987476;28;19921;-47
2023/08/30 16:04:52;;;;;;;;;;;;;;;;;;4982705;28;19918;-45
2023/08/30 16:07:18;;;;;;;;;;;;;;;;;;4969412;28;19956;-44
2023/08/30 16:09:48;;;;;;;;;;;;;;;;;;4969324;28;19933;-46
2023/08/30 16:12:13;;;;;;;;;;;;;;;;;;4969368;28;19949;-47
2023/08/30 16:14:39;;;;;;;;;;;;;;;;;;4979781;28;20003;-45
2023/08/30 16:17:05;;;;;;;;;;;;;;;;;;4975935;28;19918;-46
2023/08/30 16:19:35;;;;;;;;;;;;;;;;;;4977967;28;20297;-45
2023/08/30 16:22:01;;;;;;;;;;;;;;;;;;4974866;28;19961;-46
2023/08/30 16:24:28;;;;;;;;;;;;;;;;;;4967021;28;21263;-45
2023/08/30 16:26:55;;;;;;;;;;;;;;;;;;4968589;28;20419;-46
2023/08/30 16:29:21;;;;;;;;;;;;;;;;;;4979947;28;20708;-44
2023/08/30 16:31:51;;;;;;;;;;;;;;;;;;4977039;28;19914;-47
2023/08/30 16:34:17;;;;;;;;;;;;;;;;;;4967227;28;20289;-46
2023/08/30 16:36:43;;;;;;;;;;;;;;;;;;4966147;28;19918;-46
2023/08/30 16:39:09;;;;;;;;;;;;;;;;;;4968103;28;19914;-48
2023/08/30 16:41:35;;;;;;;;;;;;;;;;;;4969104;28;19921;-46
2023/08/30 16:44:01;;;;;;;;;;;;;;;;;;4967292;28;19925;-44
2023/08/30 16:46:26;;;;;;;;;;;;;;;;;;4959769;28;19962;-49
2023/08/30 16:48:52;;;;;;;;;;;;;;;;;;4967454;28;20567;-47
2023/08/30 16:51:18;;;;;;;;;;;;;;;;;;4964659;28;20400;-47
2023/08/30 16:53:44;;;;;;;;;;;;;;;;;;4965299;28;19914;-47
2023/08/30 16:56:10;;;;;;;;;;;;;;;;;;4966927;28;20009;-48
2023/08/30 16:58:36;;;;;;;;;;;;;;;;;;4964267;28;19918;-45
2023/08/30 17:01:02;;;;;;;;;;;;;;;;;;4964478;28;20012;-45
2023/08/30 17:03:28;;;;;;;;;;;;;;;;;;4969414;28;19929;-48
2023/08/30 17:05:56;;;;;;;;;;;;;;;;;;4970074;28;19914;-46
2023/08/30 17:08:21;;;;;;;;;;;;;;;;;;4969810;28;19929;-48
2023/08/30 17:10:47;;;;;;;;;;;;;;;;;;4949858;28;19914;-45
2023/08/30 17:13:13;;;;;;;;;;;;;;;;;;4968647;28;20017;-47
2023/08/30 17:15:39;;;;;;;;;;;;;;;;;;4968434;28;19921;-44
2023/08/30 17:18:05;;;;;;;;;;;;;;;;;;4971808;28;19930;-46
2023/08/30 17:20:31;;;;;;;;;;;;;;;;;;4969801;28;19920;-45
2023/08/30 17:22:57;;;;;;;;;;;;;;;;;;4969492;28;20167;-46
2023/08/30 17:25:23;;;;;;;;;;;;;;;;;;4970238;28;19914;-46
2023/08/30 17:27:49;;;;;;;;;;;;;;;;;;4967718;28;20377;-50
2023/08/30 17:30:16;;;;;;;;;;;;;;;;;;4969743;28;20012;-49
2023/08/30 17:32:42;;;;;;;;;;;;;;;;;;4969706;28;20233;-46
2023/08/30 17:35:08;;;;;;;;;;;;;;;;;;4970605;28;19910;-48
2023/08/30 17:37:33;;;;;;;;;;;;;;;;;;4952289;28;19914;-48
2023/08/30 17:39:59;;;;;;;;;;;;;;;;;;4966118;28;19925;-45
2023/08/30 17:42:25;;;;;;;;;;;;;;;;;;4964755;28;20305;-49
2023/08/30 17:44:51;;;;;;;;;;;;;;;;;;4951038;28;19956;-51
2023/08/30 17:47:17;;;;;;;;;;;;;;;;;;4968692;28;19914;-50
2023/08/30 17:49:43;;;;;;;;;;;;;;;;;;4969933;28;20405;-45
2023/08/30 17:52:09;;;;;;;;;;;;;;;;;;4970760;28;20028;-45
2023/08/30 17:54:35;;;;;;;;;;;;;;;;;;4957265;28;19917;-45
2023/08/30 17:57:02;;;;;;;;;;;;;;;;;;4959362;28;19910;-46
2023/08/30 17:59:30;;;;;;;;;;;;;;;;;;4964534;28;20381;-47
2023/08/30 18:01:56;;;;;;;;;;;;;;;;;;4966038;28;19914;-47
2023/08/30 18:04:22;;;;;;;;;;;;;;;;;;4963359;28;19922;-45
2023/08/30 18:06:48;;;;;;;;;;;;;;;;;;4967997;28;21089;-46
2023/08/30 18:09:14;;;;;;;;;;;;;;;;;;4945776;28;19914;-49
2023/08/30 18:11:40;;;;;;;;;;;;;;;;;;4960862;28;20444;-45
2023/08/30 18:14:06;;;;;;;;;;;;;;;;;;4963137;28;19922;-47
2023/08/30 18:16:32;;;;;;;;;;;;;;;;;;4966412;28;20020;-45
2023/08/30 18:18:58;;;;;;;;;;;;;;;;;;4969227;28;19921;-44
2023/08/30 18:21:24;;;;;;;;;;;;;;;;;;4948124;28;20429;-45
2023/08/30 18:23:50;;;;;;;;;;;;;;;;;;4967779;28;19924;-45
2023/08/30 18:26:15;;;;;;;;;;;;;;;;;;4966144;28;20391;-45
2023/08/30 18:28:41;;;;;;;;;;;;;;;;;;4966447;28;20004;-46
2023/08/30 18:31:07;;;;;;;;;;;;;;;;;;4963808;28;19925;-46
2023/08/30 18:33:33;;;;;;;;;;;;;;;;;;4963856;28;19972;-47
2023/08/30 18:35:59;;;;;;;;;;;;;;;;;;4966789;28;20399;-44
2023/08/30 18:38:25;;;;;;;;;;;;;;;;;;4965213;28;20020;-45
2023/08/30 18:40:52;;;;;;;;;;;;;;;;;;4967505;28;20400;-45
2023/08/30 18:43:18;;;;;;;;;;;;;;;;;;4966944;28;20332;-47
2023/08/30 18:45:43;;;;;;;;;;;;;;;;;;4967491;28;20021;-47
2023/08/30 18:48:09;;;;;;;;;;;;;;;;;;4950584;28;19914;-47
2023/08/30 18:50:35;;;;;;;;;;;;;;;;;;4970093;28;19910;-46
2023/08/30 18:53:01;;;;;;;;;;;;;;;;;;4966407;28;19918;-44
2023/08/30 18:55:32;;;;;;;;;;;;;;;;;;4967785;28;19923;-44
2023/08/30 18:57:58;;;;;;;;;;;;;;;;;;4960244;28;19961;-46
2023/08/30 19:00:24;;;;;;;;;;;;;;;;;;4957841;28;19957;-48
2023/08/30 19:02:50;;;;;;;;;;;;;;;;;;4951271;28;19964;-47
2023/08/30 19:05:16;;;;;;;;;;;;;;;;;;4949411;28;20273;-47
2023/08/30 19:07:43;;;;;;;;;;;;;;;;;;4960381;28;19961;-44
2023/08/30 19:10:09;;;;;;;;;;;;;;;;;;4967253;28;19921;-44
2023/08/30 19:12:35;;;;;;;;;;;;;;;;;;4968636;28;19914;-46
2023/08/30 19:15:02;;;;;;;;;;;;;;;;;;4968956;28;19918;-49
2023/08/30 19:17:27;;;;;;;;;;;;;;;;;;4969197;28;19921;-48
2023/08/30 19:19:53;;;;;;;;;;;;;;;;;;4965215;28;19918;-50
2023/08/30 19:22:20;;;;;;;;;;;;;;;;;;4964832;28;19915;-49
2023/08/30 19:24:46;;;;;;;;;;;;;;;;;;4965794;28;20447;-47
2023/08/30 19:27:12;;;;;;;;;;;;;;;;;;4967921;28;19919;-47
2023/08/30 19:29:38;;;;;;;;;;;;;;;;;;4966651;28;20000;-46
2023/08/30 19:32:04;;;;;;;;;;;;;;;;;;4968524;28;19921;-46
2023/08/30 19:34:30;;;;;;;;;;;;;;;;;;4968568;28;19922;-46
2023/08/30 19:36:56;;;;;;;;;;;;;;;;;;4965141;28;19961;-46
2023/08/30 19:39:22;;;;;;;;;;;;;;;;;;4967914;28;19918;-46
2023/08/30 19:41:48;;;;;;;;;;;;;;;;;;4968428;28;19910;-46
2023/08/30 19:44:13;;;;;;;;;;;;;;;;;;4968533;28;19963;-47
2023/08/30 19:46:39;;;;;;;;;;;;;;;;;;4966517;28;19961;-45
2023/08/30 19:49:05;;;;;;;;;;;;;;;;;;4951681;28;19910;-45
2023/08/30 19:51:31;;;;;;;;;;;;;;;;;;4966115;28;19914;-45
2023/08/30 19:53:57;;;;;;;;;;;;;;;;;;4949873;28;19914;-46
2023/08/30 19:56:23;;;;;;;;;;;;;;;;;;4966419;28;20319;-45
2023/08/30 19:58:49;;;;;;;;;;;;;;;;;;4968667;28;19960;-45
2023/08/30 20:01:18;;;;;;;;;;;;;;;;;;4976189;28;20004;-46
2023/08/30 20:03:44;;;;;;;;;;;;;;;;;;4964559;28;19922;-46
2023/08/30 20:06:09;;;;;;;;;;;;;;;;;;4967637;28;20009;-44
2023/08/30 20:08:35;;;;;;;;;;;;;;;;;;4967438;28;19914;-46
2023/08/30 20:11:03;;;;;;;;;;;;;;;;;;4967696;28;19914;-43
2023/08/30 20:13:28;;;;;;;;;;;;;;;;;;4964646;28;20297;-45
2023/08/30 20:15:54;;;;;;;;;;;;;;;;;;4966564;28;19937;-47
2023/08/30 20:18:20;;;;;;;;;;;;;;;;;;4967210;28;19924;-44
2023/08/30 20:20:46;;;;;;;;;;;;;;;;;;4967783;28;20381;-46
2023/08/30 20:23:12;;;;;;;;;;;;;;;;;;4946663;28;19922;-45
2023/08/30 20:25:38;;;;;;;;;;;;;;;;;;4965967;28;19920;-48
2023/08/30 20:28:04;;;;;;;;;;;;;;;;;;4967802;28;20199;-50
2023/08/30 20:30:30;;;;;;;;;;;;;;;;;;4967672;28;20391;-45
2023/08/30 20:32:56;;;;;;;;;;;;;;;;;;4964127;28;19930;-45
2023/08/30 20:35:22;;;;;;;;;;;;;;;;;;4948479;28;19973;-44
2023/08/30 20:37:49;;;;;;;;;;;;;;;;;;4965992;28;19921;-43
2023/08/30 20:40:14;;;;;;;;;;;;;;;;;;4967551;28;19917;-45
2023/08/30 20:42:41;;;;;;;;;;;;;;;;;;4948632;28;19918;-45
2023/08/30 20:45:07;;;;;;;;;;;;;;;;;;4967103;28;20418;-44
2023/08/30 20:47:33;;;;;;;;;;;;;;;;;;4966556;28;19914;-45
2023/08/30 20:49:59;;;;;;;;;;;;;;;;;;4964556;28;19918;-47
2023/08/30 20:52:27;;;;;;;;;;;;;;;;;;4963980;28;19914;-45
2023/08/30 20:54:53;;;;;;;;;;;;;;;;;;4978178;28;19924;-45
2023/08/30 20:57:19;;;;;;;;;;;;;;;;;;4965371;28;20013;-47
2023/08/30 20:59:45;;;;;;;;;;;;;;;;;;4971077;28;20018;-46
2023/08/30 21:02:11;;;;;;;;;;;;;;;;;;4967806;28;20281;-45
2023/08/30 21:04:37;;;;;;;;;;;;;;;;;;4950801;28;19952;-45
2023/08/30 21:07:03;;;;;;;;;;;;;;;;;;4966987;28;19917;-44
2023/08/30 21:09:29;;;;;;;;;;;;;;;;;;4964542;28;19969;-45
2023/08/30 21:11:55;;;;;;;;;;;;;;;;;;4967219;28;19910;-45
2023/08/30 21:14:21;;;;;;;;;;;;;;;;;;4967253;28;19910;-44
2023/08/30 21:16:47;;;;;;;;;;;;;;;;;;4967198;28;19910;-48
2023/08/30 21:19:12;;;;;;;;;;;;;;;;;;4966626;28;20258;-44
2023/08/30 21:21:38;;;;;;;;;;;;;;;;;;4966608;28;19921;-47
2023/08/30 21:24:08;;;;;;;;;;;;;;;;;;4967614;28;19937;-47
2023/08/30 21:26:33;;;;;;;;;;;;;;;;;;4967049;28;20360;-45
2023/08/30 21:28:59;;;;;;;;;;;;;;;;;;4967528;28;20009;-45
2023/08/30 21:31:25;;;;;;;;;;;;;;;;;;4966748;28;19925;-49
2023/08/30 21:33:53;;;;;;;;;;;;;;;;;;4967253;28;20490;-45
2023/08/30 21:36:19;;;;;;;;;;;;;;;;;;4949079;28;20460;-44
2023/08/30 21:38:45;;;;;;;;;;;;;;;;;;4966932;28;19991;-45
2023/08/30 21:41:11;;;;;;;;;;;;;;;;;;4966874;28;19951;-44
2023/08/30 21:43:37;;;;;;;;;;;;;;;;;;4966945;28;19925;-45
2023/08/30 21:46:03;;;;;;;;;;;;;;;;;;4969530;28;19910;-47
2023/08/30 21:48:29;;;;;;;;;;;;;;;;;;4959750;28;19922;-45
2023/08/30 21:50:55;;;;;;;;;;;;;;;;;;4970540;28;19966;-45
2023/08/30 21:53:21;;;;;;;;;;;;;;;;;;4970683;28;19916;-46